Graff, Missouri
Current Conditions -  °F | °C
As of 4:58 AM on Thursday 27 Nov 2014 (Local Time) from KTBN Reporting Station
Overcast Overcast  
Wind Chill: 24°   Ceiling: 900
Heat Index: 31°   Visibility: 9mi
Dew Point: 29°   Wind: 7mph
Humidity: 94%   Direction: 300°WNW
Pressure: 30.38"   Gusts: NA
Location:  37.32°N, 92.28°W
Report Text: KTBN 271058Z AUTO 30006KT 9SM OVC009 M01/M02 A3038 RMK AO2 SLP300 T10081016
Loading
Personal Weather Stations






























Interactive Weather Map New forecast layout! Learn more

10-Day Weather Forecast

Advertisements
Track Severe Weather on mobile